Allyn, WA

7:24 PM PST on December 17, 2014 (GMT -0800)
Sanderson | Change Station
CLOSE
Current Station
Airport
Location: Shelton,
Elevation: 269 ft
Nearby Weather Stations

Elev 269 ft 47.24 °N, 123.14 °W | Updated 14 minutes ago

Rain
Rain
44 °F
Feels Like 44 °F
N
0
Wind Variable Wind from North

Today
High -- | Low -- °F
--% Chance of Precip.
Yesterday
High -- | Low -- °F
Precip. -- in
7:53 AM 4:21 PM
Waning Crescent, 18% visible
Pressure 29.88 in
Visibility 3.0 miles
Clouds Scattered Clouds 600 ft
Overcast 2900 ft
Dew Point 43 °F
Humidity 96%
Rainfall 0.11 in
Snow Depth Not available.
UV 0 out of 12
Pollen 1.10 out of 12
Air Quality Not available.
Flu Activity Not available.
SPECI KSHN 180310Z AUTO 00000KT 3SM -RA BR SCT006 OVC029 07/06 A2988 RMK AO2 P0001 T00670061

More Conditions Fewer Conditions

Pressure 29.88 in
Visibility 3.0 miles
Clouds Scattered Clouds 600 ft
Overcast 2900 ft
Dew Point 43 °F
Humidity 96%
Rainfall 0.11 in
Snow Depth Not available.
UV 0 out of 12
Pollen 1.10 out of 12
Air Quality Not available.
Flu Activity Not available.
SPECI KSHN 180310Z AUTO 00000KT 3SM -RA BR SCT006 OVC029 07/06 A2988 RMK AO2 P0001 T00670061

More Conditions Fewer Conditions

10-Day Weather Forecast

Almanac

Astronomy

Dec. 17, 2014 Rise Set
Actual Time
Civil Twilight
Nautical Twilight
Astronomical Twilight
Moon
Length of Visible Light
Length of Day
Tomorrow will be .
, % of the Moon is Illuminated

Today's Extremes

State Highs State Lows

Community

WunderPhotos

Upload Photos

1,778,878 photos uploaded!

WunderBlogs® & News

Nearby

Air Quality

  Air Quality AQ Index Pollutant
Not available.

Snow Depth

Station Depth Elevation

Earthquake Activity

City Distance Mag. Time & Date
Minimum magnitude displayed is 2.5.

Coastal Water Temperatures

Place Temperature

Nearby Weather Stations